createdAt,value
2019-04-04T00:00:08.916Z,994.32
2019-04-04T00:01:08.971Z,994.31
2019-04-04T00:03:01.991Z,994.24
2019-04-04T00:04:02.022Z,994.28
2019-04-04T00:05:56.595Z,994.34
2019-04-04T00:06:57.857Z,994.35
2019-04-04T00:08:48.087Z,994.26
2019-04-04T00:09:48.114Z,994.21
2019-04-04T00:11:41.098Z,994.18
2019-04-04T00:12:41.155Z,994.15
2019-04-04T00:14:34.186Z,994.11
2019-04-04T00:15:34.210Z,994.14
2019-04-04T00:17:27.189Z,994.18
2019-04-04T00:18:27.461Z,994.19
2019-04-04T00:20:20.244Z,994.21
2019-04-04T00:21:20.279Z,994.19
2019-04-04T00:23:13.266Z,994.11
2019-04-04T00:24:13.316Z,994.07
2019-04-04T00:26:06.319Z,994.11
2019-04-04T00:27:06.349Z,994.17
2019-04-04T00:29:01.356Z,994.21
2019-04-04T00:29:59.388Z,994.19
2019-04-04T00:31:52.393Z,994.22
2019-04-04T00:32:52.799Z,994.25
2019-04-04T00:34:45.411Z,994.24
2019-04-04T00:35:45.468Z,994.17
2019-04-04T00:37:40.979Z,994.07
2019-04-04T00:38:38.649Z,994.03
2019-04-04T00:40:31.507Z,993.93
2019-04-04T00:41:31.535Z,993.89
2019-04-04T00:43:24.526Z,993.77
2019-04-04T00:44:24.582Z,993.79
2019-04-04T00:46:17.557Z,993.75
2019-04-04T00:47:17.605Z,993.74
2019-04-04T00:49:10.613Z,993.76
2019-04-04T00:50:10.642Z,993.83
2019-04-04T00:52:03.631Z,994.03
2019-04-04T00:53:03.682Z,994.11
2019-04-04T00:54:56.683Z,994.26
2019-04-04T00:55:56.722Z,994.30
2019-04-04T00:57:50.323Z,994.25
2019-04-04T00:58:51.781Z,994.21
2019-04-04T01:00:42.774Z,994.09
2019-04-04T01:01:42.808Z,994.02
2019-04-04T01:03:36.301Z,994.01
2019-04-04T01:04:36.343Z,993.98
2019-04-04T01:06:29.354Z,993.97
2019-04-04T01:07:29.390Z,993.94
2019-04-04T01:09:22.372Z,993.88
2019-04-04T01:10:22.424Z,993.83
2019-04-04T01:12:15.434Z,993.80
2019-04-04T01:13:15.461Z,993.85
2019-04-04T01:15:08.436Z,993.79
2019-04-04T01:16:08.494Z,993.70
2019-04-04T01:18:01.492Z,993.61
2019-04-04T01:19:01.527Z,993.67
2019-04-04T01:20:54.518Z,993.76
2019-04-04T01:21:54.572Z,993.72
2019-04-04T01:23:47.594Z,993.76
2019-04-04T01:24:47.612Z,993.81
2019-04-04T01:26:40.590Z,993.87
2019-04-04T01:27:40.648Z,993.90
2019-04-04T01:29:33.660Z,993.86
2019-04-04T01:30:33.686Z,993.83
2019-04-04T01:32:26.663Z,993.82
2019-04-04T01:33:26.748Z,993.83
2019-04-04T01:35:22.451Z,993.90
2019-04-04T01:36:19.777Z,994.00
2019-04-04T01:38:12.754Z,993.94
2019-04-04T01:39:12.812Z,993.89
2019-04-04T01:41:05.811Z,993.82
2019-04-04T01:42:07.152Z,993.83
2019-04-04T01:44:04.881Z,993.91
2019-04-04T01:44:58.880Z,993.92
2019-04-04T01:46:51.860Z,993.88
2019-04-04T01:47:51.917Z,993.91
2019-04-04T01:49:44.915Z,993.91
2019-04-04T01:50:44.953Z,993.93
2019-04-04T01:52:37.964Z,993.85
2019-04-04T01:53:37.995Z,993.82
2019-04-04T01:55:30.973Z,993.73
2019-04-04T01:56:31.032Z,993.72
2019-04-04T01:58:24.040Z,993.65
2019-04-04T01:59:24.064Z,993.62
2019-04-04T02:01:17.146Z,993.64
2019-04-04T02:02:18.491Z,993.65
2019-04-04T02:04:10.669Z,993.65
2019-04-04T02:05:10.664Z,993.65
2019-04-04T02:07:03.652Z,993.65
2019-04-04T02:08:03.730Z,993.68
2019-04-04T02:09:56.725Z,993.58
2019-04-04T02:10:56.762Z,993.55
2019-04-04T02:12:49.746Z,993.50
2019-04-04T02:13:49.801Z,993.48
2019-04-04T02:15:44.671Z,993.47
2019-04-04T02:16:42.837Z,993.42
2019-04-04T02:18:35.812Z,993.36
2019-04-04T02:19:35.871Z,993.31
2019-04-04T02:21:29.264Z,993.25
2019-04-04T02:22:30.892Z,993.28
2019-04-04T02:24:21.887Z,993.23
2019-04-04T02:25:21.948Z,993.18
2019-04-04T02:27:14.954Z,993.26
2019-04-04T02:28:14.987Z,993.26
2019-04-04T02:30:07.963Z,993.25
2019-04-04T02:31:08.018Z,993.27
2019-04-04T02:33:01.046Z,993.24
2019-04-04T02:34:05.252Z,993.22
2019-04-04T02:35:54.045Z,993.19
2019-04-04T02:36:54.105Z,993.24
2019-04-04T02:38:47.100Z,993.27
2019-04-04T02:39:47.144Z,993.28
2019-04-04T02:41:40.140Z,993.28
2019-04-04T02:42:40.171Z,993.26
2019-04-04T02:44:33.286Z,993.20
2019-04-04T02:45:33.207Z,993.19
2019-04-04T02:47:26.210Z,993.20
2019-04-04T02:48:26.238Z,993.26
2019-04-04T02:50:19.252Z,993.22
2019-04-04T02:51:19.271Z,993.16
2019-04-04T02:53:12.278Z,993.12
2019-04-04T02:54:12.308Z,993.11
2019-04-04T02:56:05.341Z,993.12
2019-04-04T02:57:07.964Z,993.09
2019-04-04T02:58:58.398Z,992.98
2019-04-04T02:59:58.426Z,992.91
2019-04-04T03:01:51.398Z,992.94
2019-04-04T03:02:51.452Z,993.01
2019-04-04T03:04:46.816Z,993.09
2019-04-04T03:05:44.494Z,993.05
2019-04-04T03:07:38.001Z,993.07
2019-04-04T03:08:38.049Z,993.08
2019-04-04T03:10:31.061Z,993.13
2019-04-04T03:11:31.114Z,993.19
2019-04-04T03:13:24.121Z,993.28
2019-04-04T03:14:24.146Z,993.31
2019-04-04T03:16:21.050Z,993.26
2019-04-04T03:17:17.187Z,993.14
2019-04-04T03:19:11.151Z,993.05
2019-04-04T03:20:10.228Z,993.12
2019-04-04T03:22:03.222Z,993.08
2019-04-04T03:23:03.257Z,993.11
2019-04-04T03:24:56.261Z,993.22
2019-04-04T03:25:56.292Z,993.31
2019-04-04T03:27:49.262Z,993.25
2019-04-04T03:28:49.338Z,993.24
2019-04-04T03:30:42.345Z,993.34
2019-04-04T03:31:42.400Z,993.40
2019-04-04T03:33:35.384Z,993.46
2019-04-04T03:34:35.411Z,993.45
2019-04-04T03:36:30.740Z,993.57
2019-04-04T03:37:28.590Z,993.56
2019-04-04T03:39:21.557Z,993.56
2019-04-04T03:40:24.745Z,993.60
2019-04-04T03:42:14.608Z,993.66
2019-04-04T03:43:16.110Z,993.70
2019-04-04T03:45:08.178Z,993.67
2019-04-04T03:46:08.203Z,993.55
2019-04-04T03:48:01.259Z,993.40
2019-04-04T03:49:01.291Z,993.35
2019-04-04T03:50:57.014Z,993.28
2019-04-04T03:51:54.291Z,993.29
2019-04-04T03:53:49.412Z,993.31
2019-04-04T03:54:47.336Z,993.18
2019-04-04T03:56:40.840Z,993.04
2019-04-04T03:57:40.412Z,993.00
2019-04-04T03:59:33.463Z,992.94
2019-04-04T04:00:33.472Z,992.94
2019-04-04T04:02:26.450Z,992.98
2019-04-04T04:03:26.510Z,993.00
2019-04-04T04:05:22.067Z,993.08
2019-04-04T04:06:22.048Z,993.12
2019-04-04T04:08:15.062Z,993.22
2019-04-04T04:09:15.071Z,993.27
2019-04-04T04:11:08.058Z,993.38
2019-04-04T04:12:11.124Z,993.41
2019-04-04T04:14:01.107Z,993.34
2019-04-04T04:15:01.150Z,993.37
2019-04-04T04:16:55.115Z,993.32
2019-04-04T04:17:55.175Z,993.31
2019-04-04T04:19:48.183Z,993.26
2019-04-04T04:20:48.265Z,993.31
2019-04-04T04:22:41.263Z,993.36
2019-04-04T04:23:41.239Z,993.36
2019-04-04T04:25:36.462Z,993.29
2019-04-04T04:26:34.296Z,993.24
2019-04-04T04:28:27.293Z,993.14
2019-04-04T04:29:29.832Z,993.12
2019-04-04T04:31:20.378Z,993.15
2019-04-04T04:32:21.863Z,993.12
2019-04-04T04:34:13.397Z,993.28
2019-04-04T04:35:13.453Z,993.29
2019-04-04T04:37:06.462Z,993.27
2019-04-04T04:38:06.499Z,993.25
2019-04-04T04:39:59.486Z,993.20
2019-04-04T04:40:59.566Z,993.18
2019-04-04T04:42:52.549Z,993.03
2019-04-04T04:43:52.610Z,992.94
2019-04-04T04:45:45.593Z,992.94
2019-04-04T04:46:49.705Z,993.01
2019-04-04T04:48:38.692Z,993.14
2019-04-04T04:49:38.742Z,993.15
2019-04-04T04:51:31.741Z,993.09
2019-04-04T04:52:31.771Z,993.01
2019-04-04T04:54:24.754Z,992.89
2019-04-04T04:55:27.181Z,992.95
2019-04-04T04:57:29.562Z,993.06
2019-04-04T04:58:17.869Z,993.08
2019-04-04T05:00:10.876Z,993.04
2019-04-04T05:01:10.882Z,993.00
2019-04-04T05:03:03.880Z,993.02
2019-04-04T05:04:03.939Z,993.03
2019-04-04T05:05:57.418Z,993.06
2019-04-04T05:06:57.456Z,993.04
2019-04-04T05:08:50.450Z,993.06
2019-04-04T05:09:50.627Z,993.03
2019-04-04T05:11:43.510Z,993.02
2019-04-04T05:12:43.575Z,993.09
2019-04-04T05:14:36.544Z,993.14
2019-04-04T05:15:36.568Z,993.13
2019-04-04T05:17:29.553Z,993.00
2019-04-04T05:18:29.616Z,993.02
2019-04-04T05:20:23.107Z,993.06
2019-04-04T05:21:25.588Z,993.07
2019-04-04T05:23:16.303Z,993.02
2019-04-04T05:24:16.059Z,993.04
2019-04-04T05:26:09.767Z,993.12
2019-04-04T05:27:08.724Z,993.10
2019-04-04T05:29:01.708Z,992.94
2019-04-04T05:30:01.749Z,992.81
2019-04-04T05:31:54.734Z,992.75
2019-04-04T05:32:56.539Z,992.78
2019-04-04T05:34:47.780Z,992.95
2019-04-04T05:35:47.853Z,993.02
2019-04-04T05:37:40.826Z,993.07
2019-04-04T05:38:42.764Z,993.08
2019-04-04T05:40:33.836Z,993.11
2019-04-04T05:41:33.899Z,993.14
2019-04-04T05:43:26.895Z,993.18
2019-04-04T05:44:26.923Z,993.23
2019-04-04T05:46:19.909Z,993.26
2019-04-04T05:47:22.908Z,993.34
2019-04-04T05:49:13.019Z,993.42
2019-04-04T05:50:12.997Z,993.43
2019-04-04T05:52:08.851Z,993.41
2019-04-04T05:53:06.025Z,993.37
2019-04-04T05:54:59.026Z,993.43
2019-04-04T05:55:59.089Z,993.47
2019-04-04T05:57:52.055Z,993.52
2019-04-04T05:58:53.038Z,993.49
2019-04-04T06:00:45.077Z,993.44
2019-04-04T06:01:45.135Z,993.43
2019-04-04T06:03:38.158Z,993.42
2019-04-04T06:04:38.168Z,993.43
2019-04-04T06:06:33.311Z,993.52
2019-04-04T06:07:31.210Z,993.55
2019-04-04T06:09:24.190Z,993.73
2019-04-04T06:10:24.246Z,993.74
2019-04-04T06:12:17.241Z,993.65
2019-04-04T06:13:17.288Z,993.50
2019-04-04T06:15:10.287Z,993.44
2019-04-04T06:16:10.323Z,993.48
2019-04-04T06:18:03.320Z,993.56
2019-04-04T06:19:03.360Z,993.58
2019-04-04T06:20:56.896Z,993.57
2019-04-04T06:21:56.439Z,993.54
2019-04-04T06:23:49.403Z,993.40
2019-04-04T06:24:51.999Z,993.35
2019-04-04T06:26:42.430Z,993.19
2019-04-04T06:27:42.482Z,993.27
2019-04-04T06:29:35.464Z,993.36
2019-04-04T06:30:43.238Z,993.38
2019-04-04T06:32:29.093Z,993.43
2019-04-04T06:33:28.545Z,993.42
2019-04-04T06:35:21.521Z,993.40
2019-04-04T06:36:21.565Z,993.32
2019-04-04T06:38:14.570Z,993.27
2019-04-04T06:39:14.603Z,993.24
2019-04-04T06:41:08.114Z,993.23
2019-04-04T06:42:07.643Z,993.28
2019-04-04T06:44:00.639Z,993.42
2019-04-04T06:45:00.683Z,993.48
2019-04-04T06:46:54.220Z,993.44
2019-04-04T06:47:55.281Z,993.43
2019-04-04T06:49:46.721Z,993.52
2019-04-04T06:50:46.779Z,993.55
2019-04-04T06:52:39.773Z,993.63
2019-04-04T06:53:39.810Z,993.68
2019-04-04T06:55:32.818Z,993.77
2019-04-04T06:56:32.859Z,993.79
2019-04-04T06:58:25.840Z,993.80
2019-04-04T06:59:25.983Z,993.80
2019-04-04T07:01:21.075Z,993.83
2019-04-04T07:02:18.966Z,993.86
2019-04-04T07:04:11.953Z,993.88
2019-04-04T07:05:12.000Z,993.85
2019-04-04T07:07:04.969Z,993.85
2019-04-04T07:08:05.022Z,993.88
2019-04-04T07:09:58.023Z,993.98
2019-04-04T07:11:00.388Z,993.98
2019-04-04T07:12:51.067Z,993.97
2019-04-04T07:13:51.102Z,993.97
2019-04-04T07:15:48.331Z,993.99
2019-04-04T07:16:44.167Z,994.01
2019-04-04T07:18:37.616Z,993.98
2019-04-04T07:19:37.664Z,993.98
2019-04-04T07:21:30.704Z,994.07
2019-04-04T07:22:30.707Z,994.09
2019-04-04T07:24:23.684Z,994.09
2019-04-04T07:25:23.737Z,994.11
2019-04-04T07:27:16.871Z,994.07
2019-04-04T07:28:18.843Z,994.13
2019-04-04T07:30:09.770Z,994.10
2019-04-04T07:31:09.827Z,994.05
2019-04-04T07:33:02.825Z,994.07
2019-04-04T07:34:02.869Z,994.11
2019-04-04T07:35:55.866Z,994.11
2019-04-04T07:36:55.898Z,994.05
2019-04-04T07:38:48.904Z,994.07
2019-04-04T07:39:50.187Z,994.10
2019-04-04T07:41:44.995Z,994.08
2019-04-04T07:42:41.994Z,994.12
2019-04-04T07:44:34.967Z,994.12
2019-04-04T07:45:35.044Z,994.13
2019-04-04T07:47:28.075Z,994.15
2019-04-04T07:48:28.553Z,994.20
2019-04-04T07:50:21.078Z,994.21
2019-04-04T07:51:21.152Z,994.22
2019-04-04T07:53:14.188Z,994.22
2019-04-04T07:54:14.199Z,994.22
2019-04-04T07:56:07.161Z,994.20
2019-04-04T07:57:07.258Z,994.24
2019-04-04T07:59:00.223Z,994.28
2019-04-04T08:00:00.266Z,994.33
2019-04-04T08:01:53.256Z,994.33
2019-04-04T08:02:53.313Z,994.34
2019-04-04T08:04:46.314Z,994.31
2019-04-04T08:05:46.384Z,994.32
2019-04-04T08:07:39.406Z,994.33
2019-04-04T08:08:39.421Z,994.38
2019-04-04T08:10:32.397Z,994.37
2019-04-04T08:11:32.520Z,994.34
2019-04-04T08:13:25.465Z,994.34
2019-04-04T08:14:25.495Z,994.33
2019-04-04T08:16:18.494Z,994.31
2019-04-04T08:17:18.965Z,994.36
2019-04-04T08:19:11.522Z,994.33
2019-04-04T08:20:11.578Z,994.36
2019-04-04T08:22:04.707Z,994.38
2019-04-04T08:23:05.616Z,994.36
2019-04-04T08:24:57.613Z,994.38
2019-04-04T08:25:57.657Z,994.39
2019-04-04T08:27:50.669Z,994.39
2019-04-04T08:28:50.711Z,994.36
2019-04-04T08:30:43.729Z,994.41
2019-04-04T08:31:43.761Z,994.41
2019-04-04T08:33:36.772Z,994.42
2019-04-04T08:34:36.807Z,994.46
2019-04-04T08:36:29.831Z,994.45
2019-04-04T08:37:29.843Z,994.46
2019-04-04T08:39:22.845Z,994.55
2019-04-04T08:40:22.882Z,994.56
2019-04-04T08:42:15.859Z,994.63
2019-04-04T08:43:15.917Z,994.63
2019-04-04T08:45:09.419Z,994.62
2019-04-04T08:46:09.472Z,994.64
2019-04-04T08:48:02.452Z,994.65
2019-04-04T08:49:02.513Z,994.65
2019-04-04T08:50:55.498Z,994.65
2019-04-04T08:51:55.544Z,994.64
2019-04-04T08:53:48.549Z,994.64
2019-04-04T08:54:48.586Z,994.64
2019-04-04T08:56:41.582Z,994.64
2019-04-04T08:57:41.619Z,994.64
2019-04-04T08:59:34.639Z,994.70
2019-04-04T09:00:34.654Z,994.64
2019-04-04T09:02:27.716Z,994.61
2019-04-04T09:03:27.758Z,994.61
2019-04-04T09:05:21.246Z,994.60
2019-04-04T09:06:21.271Z,994.60
2019-04-04T09:08:14.777Z,994.54
2019-04-04T09:09:14.300Z,994.51
2019-04-04T09:11:07.298Z,994.45
2019-04-04T09:12:07.340Z,994.46
2019-04-04T09:14:00.350Z,994.56
2019-04-04T09:15:00.454Z,994.62
2019-04-04T09:16:53.887Z,994.74
2019-04-04T09:17:53.416Z,994.77
2019-04-04T09:19:46.400Z,994.78
2019-04-04T09:20:46.453Z,994.73
2019-04-04T09:22:40.887Z,994.76
2019-04-04T09:23:39.533Z,994.75
2019-04-04T09:25:32.620Z,994.74
2019-04-04T09:26:32.647Z,994.77
2019-04-04T09:28:25.668Z,994.76
2019-04-04T09:29:25.681Z,994.73
2019-04-04T09:31:18.681Z,994.70
2019-04-04T09:32:18.719Z,994.69
2019-04-04T09:34:11.719Z,994.76
2019-04-04T09:35:11.757Z,994.80
2019-04-04T09:37:04.759Z,994.83
2019-04-04T09:38:04.815Z,994.79
2019-04-04T09:39:57.797Z,994.79
2019-04-04T09:40:57.835Z,994.79
2019-04-04T09:42:50.851Z,994.76
2019-04-04T09:43:50.873Z,994.76
2019-04-04T09:45:43.852Z,994.71
2019-04-04T09:46:43.912Z,994.75
2019-04-04T09:48:36.916Z,994.71
2019-04-04T09:49:36.947Z,994.72
2019-04-04T09:51:29.963Z,994.69
2019-04-04T09:52:30.022Z,994.69
2019-04-04T09:54:22.996Z,994.66
2019-04-04T09:55:23.064Z,994.62
2019-04-04T09:57:16.026Z,994.55
2019-04-04T09:58:16.070Z,994.60
2019-04-04T10:00:09.065Z,994.54
2019-04-04T10:01:09.101Z,994.55
2019-04-04T10:03:02.122Z,994.64
2019-04-04T10:04:02.171Z,994.64
2019-04-04T10:05:55.692Z,994.67
2019-04-04T10:06:55.686Z,994.70
2019-04-04T10:08:48.687Z,994.70
2019-04-04T10:09:48.722Z,994.70
2019-04-04T10:11:41.729Z,994.73
2019-04-04T10:12:41.760Z,994.74
2019-04-04T10:14:34.738Z,994.77
2019-04-04T10:15:34.802Z,994.73
2019-04-04T10:17:27.804Z,994.69
2019-04-04T10:18:27.834Z,994.65
2019-04-04T10:20:20.863Z,994.67
2019-04-04T10:21:20.899Z,994.65
2019-04-04T10:23:13.922Z,994.65
2019-04-04T10:24:13.982Z,994.71
2019-04-04T10:26:06.968Z,994.67
2019-04-04T10:27:07.026Z,994.70
2019-04-04T10:29:00.021Z,994.75
2019-04-04T10:30:00.070Z,994.75
2019-04-04T10:31:53.068Z,994.77
2019-04-04T10:32:53.113Z,994.80
2019-04-04T10:34:46.126Z,994.78
2019-04-04T10:35:46.157Z,994.80
2019-04-04T10:37:39.243Z,994.86
2019-04-04T10:38:39.234Z,994.84
2019-04-04T10:40:32.229Z,994.85
2019-04-04T10:41:32.271Z,994.81
2019-04-04T10:43:25.315Z,994.78
2019-04-04T10:44:25.341Z,994.83
2019-04-04T10:46:18.341Z,994.84
2019-04-04T10:47:18.365Z,994.78
2019-04-04T10:49:11.352Z,994.73
2019-04-04T10:50:11.440Z,994.76
2019-04-04T10:52:04.464Z,994.70
2019-04-04T10:53:04.507Z,994.73
2019-04-04T10:54:57.544Z,994.69
2019-04-04T10:55:57.564Z,994.72
2019-04-04T10:57:50.556Z,994.77
2019-04-04T10:58:50.689Z,994.77
2019-04-04T11:00:43.584Z,994.83
2019-04-04T11:01:43.637Z,994.88
2019-04-04T11:03:36.703Z,994.89
2019-04-04T11:04:36.684Z,994.88
2019-04-04T11:06:29.702Z,994.95
2019-04-04T11:07:29.746Z,994.90
2019-04-04T11:09:22.738Z,994.87
2019-04-04T11:10:22.845Z,994.86
2019-04-04T11:12:15.797Z,994.77
2019-04-04T11:13:15.834Z,994.73
2019-04-04T11:15:08.851Z,994.71
2019-04-04T11:16:08.890Z,994.66
2019-04-04T11:18:01.915Z,994.64
2019-04-04T11:19:01.934Z,994.60
2019-04-04T11:20:54.967Z,994.52
2019-04-04T11:21:55.006Z,994.52
2019-04-04T11:23:47.994Z,994.54
2019-04-04T11:24:48.031Z,994.54
2019-04-04T11:26:41.079Z,994.57
2019-04-04T11:27:41.102Z,994.60
2019-04-04T11:29:34.131Z,994.71
2019-04-04T11:30:34.187Z,994.72
2019-04-04T11:32:27.168Z,994.81
2019-04-04T11:33:27.200Z,994.79
2019-04-04T11:35:20.256Z,994.75
2019-04-04T11:36:20.264Z,994.73
2019-04-04T11:38:13.275Z,994.73
2019-04-04T11:39:13.395Z,994.78
2019-04-04T11:41:06.365Z,994.77
2019-04-04T11:42:06.386Z,994.76
2019-04-04T11:43:59.378Z,994.74
2019-04-04T11:44:59.436Z,994.72
2019-04-04T11:46:52.429Z,994.78
2019-04-04T11:47:52.471Z,994.85
2019-04-04T11:49:45.491Z,994.88
2019-04-04T11:50:45.538Z,994.90
2019-04-04T11:52:38.550Z,994.95
2019-04-04T11:53:38.639Z,994.91
2019-04-04T11:55:31.600Z,994.94
2019-04-04T11:56:31.687Z,994.94
2019-04-04T11:58:24.670Z,994.90
2019-04-04T11:59:24.694Z,994.87
2019-04-04T12:01:17.747Z,994.87
2019-04-04T12:02:17.768Z,994.87
2019-04-04T12:04:10.759Z,994.92
2019-04-04T12:05:10.798Z,994.90
2019-04-04T12:07:03.824Z,994.95
2019-04-04T12:08:03.848Z,994.95
2019-04-04T12:10:06.685Z,994.98
2019-04-04T12:10:56.905Z,994.97
2019-04-04T12:12:49.975Z,995.02
2019-04-04T12:13:50.605Z,995.09
2019-04-04T12:15:42.993Z,995.11
2019-04-04T12:16:43.005Z,995.14
2019-04-04T12:18:36.095Z,995.12
2019-04-04T12:19:36.060Z,995.10
2019-04-04T12:21:29.081Z,995.11
2019-04-04T12:22:29.114Z,995.17
2019-04-04T12:24:22.132Z,995.22
2019-04-04T12:25:22.158Z,995.23
2019-04-04T12:27:15.229Z,995.28
2019-04-04T12:28:15.211Z,995.32
2019-04-04T12:30:08.254Z,995.37
2019-04-04T12:31:08.327Z,995.35
2019-04-04T12:33:01.364Z,995.39
2019-04-04T12:34:02.410Z,995.34
2019-04-04T12:35:54.387Z,995.42
2019-04-04T12:36:54.408Z,995.37
2019-04-04T12:38:47.437Z,995.41
2019-04-04T12:39:48.467Z,995.40
2019-04-04T12:41:40.488Z,995.37
2019-04-04T12:42:40.575Z,995.37
2019-04-04T12:44:33.561Z,995.32
2019-04-04T12:45:33.613Z,995.34
2019-04-04T12:47:26.655Z,995.27
2019-04-04T12:48:26.666Z,995.29
2019-04-04T12:50:19.671Z,995.27
2019-04-04T12:51:19.765Z,995.32
2019-04-04T12:53:12.774Z,995.38
2019-04-04T12:54:12.828Z,995.39
2019-04-04T12:56:05.776Z,995.34
2019-04-04T12:57:05.878Z,995.30
2019-04-04T12:58:58.899Z,995.27
2019-04-04T12:59:58.940Z,995.27
2019-04-04T13:01:51.888Z,995.22
2019-04-04T13:02:52.006Z,995.19
2019-04-04T13:04:45.025Z,995.17
2019-04-04T13:05:45.006Z,995.17
2019-04-04T13:07:38.017Z,995.19
2019-04-04T13:08:38.047Z,995.19
2019-04-04T13:10:33.224Z,995.23
2019-04-04T13:11:31.125Z,995.21
2019-04-04T13:13:24.131Z,995.19
2019-04-04T13:14:25.201Z,995.19
2019-04-04T13:16:17.227Z,995.22
2019-04-04T13:17:17.287Z,995.21
2019-04-04T13:19:10.255Z,995.19
2019-04-04T13:20:10.311Z,995.14
2019-04-04T13:22:15.946Z,995.09
2019-04-04T13:23:15.970Z,995.07
2019-04-04T13:25:08.974Z,995.09
2019-04-04T13:26:09.134Z,995.10
2019-04-04T13:28:02.075Z,995.10
2019-04-04T13:29:02.084Z,995.10
2019-04-04T13:30:55.091Z,995.04
2019-04-04T13:31:55.145Z,994.96
2019-04-04T13:33:48.153Z,994.87
2019-04-04T13:34:58.803Z,994.85
2019-04-04T13:36:41.268Z,994.82
2019-04-04T13:37:41.299Z,994.88
2019-04-04T13:39:34.232Z,994.92
2019-04-04T13:40:44.786Z,994.95
2019-04-04T13:42:27.323Z,995.05
2019-04-04T13:43:27.655Z,995.12
2019-04-04T13:45:20.369Z,995.25
2019-04-04T13:46:20.414Z,995.24
2019-04-04T13:48:13.482Z,995.23
2019-04-04T13:49:13.452Z,995.25
2019-04-04T13:51:06.475Z,995.21
2019-04-04T13:52:06.512Z,995.21
2019-04-04T13:53:59.574Z,995.32
2019-04-04T13:54:59.551Z,995.36
2019-04-04T13:56:52.582Z,995.47
2019-04-04T13:57:52.645Z,995.56
2019-04-04T13:59:45.630Z,995.64
2019-04-04T14:00:45.662Z,995.70
2019-04-04T14:02:38.678Z,995.70
2019-04-04T14:03:38.716Z,995.72
2019-04-04T14:05:31.736Z,995.72
2019-04-04T14:06:31.765Z,995.73
2019-04-04T14:08:24.824Z,995.78
2019-04-04T14:09:24.835Z,995.79
2019-04-04T14:11:17.973Z,995.81
2019-04-04T14:12:17.929Z,995.77
2019-04-04T14:15:25.286Z,995.74
2019-04-04T14:16:57.263Z,995.65
2019-04-04T14:17:57.400Z,995.66
2019-04-04T14:19:50.847Z,995.69
2019-04-04T14:21:02.952Z,995.72
2019-04-04T14:22:43.831Z,995.65
2019-04-04T14:23:45.262Z,995.62
2019-04-04T14:25:36.914Z,995.55
2019-04-04T14:26:36.997Z,995.53
2019-04-04T14:28:30.024Z,995.71
2019-04-04T14:29:29.993Z,995.78
2019-04-04T14:31:22.990Z,995.92
2019-04-04T14:32:23.071Z,995.94
2019-04-04T14:34:16.024Z,995.96
2019-04-04T14:35:17.041Z,995.95
2019-04-04T14:37:09.083Z,995.95
2019-04-04T14:38:09.113Z,995.94
2019-04-04T14:40:02.095Z,995.88
2019-04-04T14:41:11.208Z,995.88
2019-04-04T14:42:55.160Z,995.94
2019-04-04T14:43:55.212Z,995.92
2019-04-04T14:45:48.195Z,995.96
2019-04-04T14:46:48.308Z,995.97
2019-04-04T14:48:42.961Z,996.06
2019-04-04T14:49:43.063Z,996.08
2019-04-04T14:51:34.259Z,996.11
2019-04-04T14:52:34.298Z,996.10
2019-04-04T14:54:29.288Z,996.13
2019-04-04T14:55:27.349Z,996.16
2019-04-04T14:57:20.336Z,996.15
2019-04-04T14:58:20.393Z,996.14
2019-04-04T15:00:15.731Z,996.02
2019-04-04T15:01:13.428Z,995.91
2019-04-04T15:03:06.411Z,995.84
2019-04-04T15:04:06.468Z,995.75
2019-04-04T15:05:59.480Z,995.74
2019-04-04T15:06:59.515Z,995.73
2019-04-04T15:08:52.515Z,995.72
2019-04-04T15:09:52.543Z,995.78
2019-04-04T15:11:45.522Z,995.84
2019-04-04T15:12:45.584Z,995.95
2019-04-04T15:14:40.094Z,995.97
2019-04-04T15:15:40.130Z,995.98
2019-04-04T15:17:33.169Z,996.09
2019-04-04T15:18:33.205Z,996.11
2019-04-04T15:20:26.198Z,996.16
2019-04-04T15:21:26.270Z,996.21
2019-04-04T15:23:19.303Z,996.31
2019-04-04T15:24:19.352Z,996.30
2019-04-04T15:26:12.340Z,996.38
2019-04-04T15:27:12.378Z,996.42
2019-04-04T15:29:05.378Z,996.46
2019-04-04T15:30:05.414Z,996.45
2019-04-04T15:31:58.429Z,996.45
2019-04-04T15:32:58.546Z,996.47
2019-04-04T15:34:51.435Z,996.53
2019-04-04T15:35:51.493Z,996.52
2019-04-04T15:37:44.513Z,996.44
2019-04-04T15:38:44.551Z,996.41
2019-04-04T15:40:37.569Z,996.42
2019-04-04T15:41:37.674Z,996.46
2019-04-04T15:43:30.596Z,996.52
2019-04-04T15:44:30.635Z,996.40
2019-04-04T15:46:23.636Z,996.28
2019-04-04T15:47:23.669Z,996.24
2019-04-04T15:49:16.651Z,996.30
2019-04-04T15:50:16.706Z,996.33
2019-04-04T15:52:09.739Z,996.32
2019-04-04T15:53:09.769Z,996.24
2019-04-04T15:55:03.265Z,996.16
2019-04-04T15:56:03.308Z,996.14
2019-04-04T15:57:56.348Z,996.22
2019-04-04T15:58:56.353Z,996.19
2019-04-04T16:00:49.433Z,996.15
2019-04-04T16:01:49.484Z,996.15
2019-04-04T16:03:42.494Z,996.20
2019-04-04T16:04:42.538Z,996.22
2019-04-04T16:06:35.538Z,996.28
2019-04-04T16:07:35.570Z,996.32
2019-04-04T16:09:28.607Z,996.45
2019-04-04T16:10:28.619Z,996.49
2019-04-04T16:12:21.620Z,996.54
2019-04-04T16:13:21.658Z,996.52
2019-04-04T16:15:15.182Z,996.62
2019-04-04T16:16:15.204Z,996.68
2019-04-04T16:18:08.210Z,996.64
2019-04-04T16:19:08.233Z,996.56
2019-04-04T16:21:01.214Z,996.57
2019-04-04T16:22:01.278Z,996.53
2019-04-04T16:23:54.279Z,996.48
2019-04-04T16:24:54.317Z,996.47
2019-04-04T16:26:47.385Z,996.39
2019-04-04T16:27:48.325Z,996.39
2019-04-04T16:29:40.883Z,996.40
2019-04-04T16:30:40.943Z,996.44
2019-04-04T16:32:33.940Z,996.57
2019-04-04T16:33:33.968Z,996.58
2019-04-04T16:35:26.957Z,996.67
2019-04-04T16:36:27.002Z,996.73
2019-04-04T16:38:22.716Z,996.85
2019-04-04T16:39:20.077Z,996.92
2019-04-04T16:41:14.527Z,997.01
2019-04-04T16:42:13.095Z,997.01
2019-04-04T16:44:06.110Z,996.96
2019-04-04T16:45:07.484Z,996.88
2019-04-04T16:46:59.110Z,996.78
2019-04-04T16:47:59.168Z,996.82
2019-04-04T16:49:52.220Z,996.76
2019-04-04T16:50:52.247Z,996.78
2019-04-04T16:52:45.226Z,996.82
2019-04-04T16:53:45.312Z,996.87
2019-04-04T16:55:38.287Z,996.94
2019-04-04T16:56:38.324Z,996.94
2019-04-04T16:58:31.313Z,996.88
2019-04-04T16:59:31.389Z,996.87
2019-04-04T17:01:24.371Z,996.88
2019-04-04T17:02:24.392Z,996.88
2019-04-04T17:04:17.379Z,996.98
2019-04-04T17:05:17.434Z,997.01
2019-04-04T17:07:10.430Z,996.98
2019-04-04T17:08:10.471Z,997.00
2019-04-04T17:10:03.491Z,997.05
2019-04-04T17:11:03.505Z,997.05
2019-04-04T17:12:56.504Z,997.04
2019-04-04T17:13:56.543Z,997.02
2019-04-04T17:15:49.548Z,996.99
2019-04-04T17:16:49.590Z,996.95
2019-04-04T17:18:42.590Z,996.91
2019-04-04T17:19:42.622Z,996.89
2019-04-04T17:21:35.628Z,996.89
2019-04-04T17:22:35.664Z,996.87
2019-04-04T17:24:28.659Z,996.89
2019-04-04T17:25:28.702Z,996.83
2019-04-04T17:27:21.730Z,996.80
2019-04-04T17:28:21.800Z,996.79
2019-04-04T17:30:15.067Z,996.75
2019-04-04T17:31:14.834Z,996.72
2019-04-04T17:33:08.259Z,996.76
2019-04-04T17:34:07.858Z,996.73
2019-04-04T17:36:02.570Z,996.80
2019-04-04T17:37:02.434Z,996.81
2019-04-04T17:38:55.797Z,996.83
2019-04-04T17:39:54.876Z,996.84
2019-04-04T17:41:49.755Z,996.93
2019-04-04T17:42:47.911Z,996.98
2019-04-04T17:44:40.942Z,997.10
2019-04-04T17:45:40.966Z,997.15
2019-04-04T17:47:34.027Z,997.21
2019-04-04T17:48:33.994Z,997.19
2019-04-04T17:50:27.566Z,997.19
2019-04-04T17:51:27.362Z,997.23
2019-04-04T17:53:20.258Z,997.24
2019-04-04T17:54:20.088Z,997.25
2019-04-04T17:56:13.354Z,997.31
2019-04-04T17:57:13.120Z,997.33
2019-04-04T17:59:06.108Z,997.31
2019-04-04T18:00:06.156Z,997.32